sensor_id;sensor_type;location;lat;lon;timestamp;P1;durP1;ratioP1;P2;durP2;ratioP2
28766;SDS011;15921;52.034;20.650;2023-03-23T00:01:47;52.33;;;26.55;;
28766;SDS011;15921;52.034;20.650;2023-03-23T00:04:14;48.78;;;25.50;;
28766;SDS011;15921;52.034;20.650;2023-03-23T00:06:41;47.35;;;25.60;;
28766;SDS011;15921;52.034;20.650;2023-03-23T00:09:10;47.65;;;25.05;;
28766;SDS011;15921;52.034;20.650;2023-03-23T00:11:37;52.83;;;25.92;;
28766;SDS011;15921;52.034;20.650;2023-03-23T00:14:04;50.15;;;25.83;;
28766;SDS011;15921;52.034;20.650;2023-03-23T00:16:31;45.78;;;24.77;;
28766;SDS011;15921;52.034;20.650;2023-03-23T00:19:01;48.45;;;25.45;;
28766;SDS011;15921;52.034;20.650;2023-03-23T00:21:32;44.53;;;22.77;;
28766;SDS011;15921;52.034;20.650;2023-03-23T00:24:24;42.50;;;23.15;;
28766;SDS011;15921;52.034;20.650;2023-03-23T00:26:49;45.75;;;24.15;;
28766;SDS011;15921;52.034;20.650;2023-03-23T00:29:20;43.63;;;22.90;;
28766;SDS011;15921;52.034;20.650;2023-03-23T00:31:48;44.30;;;23.60;;
28766;SDS011;15921;52.034;20.650;2023-03-23T00:34:18;41.15;;;23.20;;
28766;SDS011;15921;52.034;20.650;2023-03-23T00:36:49;41.58;;;22.77;;
28766;SDS011;15921;52.034;20.650;2023-03-23T00:39:18;43.80;;;22.67;;
28766;SDS011;15921;52.034;20.650;2023-03-23T00:41:44;46.63;;;22.92;;
28766;SDS011;15921;52.034;20.650;2023-03-23T00:44:11;42.58;;;22.67;;
28766;SDS011;15921;52.034;20.650;2023-03-23T00:46:45;43.63;;;21.70;;
28766;SDS011;15921;52.034;20.650;2023-03-23T00:49:13;40.17;;;21.92;;
28766;SDS011;15921;52.034;20.650;2023-03-23T00:51:41;41.10;;;21.88;;
28766;SDS011;15921;52.034;20.650;2023-03-23T00:54:07;38.25;;;21.00;;
28766;SDS011;15921;52.034;20.650;2023-03-23T00:56:33;40.67;;;20.83;;
28766;SDS011;15921;52.034;20.650;2023-03-23T00:59:00;33.03;;;19.48;;
28766;SDS011;15921;52.034;20.650;2023-03-23T01:01:25;34.53;;;19.20;;
28766;SDS011;15921;52.034;20.650;2023-03-23T01:03:51;39.92;;;19.58;;
28766;SDS011;15921;52.034;20.650;2023-03-23T01:06:26;36.20;;;19.48;;
28766;SDS011;15921;52.034;20.650;2023-03-23T01:08:56;39.85;;;20.10;;
28766;SDS011;15921;52.034;20.650;2023-03-23T01:11:23;35.72;;;19.85;;
28766;SDS011;15921;52.034;20.650;2023-03-23T01:13:50;44.00;;;20.42;;
28766;SDS011;15921;52.034;20.650;2023-03-23T01:16:16;34.95;;;19.48;;
28766;SDS011;15921;52.034;20.650;2023-03-23T01:18:42;35.92;;;19.95;;
28766;SDS011;15921;52.034;20.650;2023-03-23T01:21:11;45.17;;;19.55;;
28766;SDS011;15921;52.034;20.650;2023-03-23T01:23:41;36.95;;;20.85;;
28766;SDS011;15921;52.034;20.650;2023-03-23T01:26:11;36.75;;;20.10;;
28766;SDS011;15921;52.034;20.650;2023-03-23T01:28:39;35.25;;;20.80;;
28766;SDS011;15921;52.034;20.650;2023-03-23T01:31:06;37.53;;;19.20;;
28766;SDS011;15921;52.034;20.650;2023-03-23T01:33:34;40.35;;;19.80;;
28766;SDS011;15921;52.034;20.650;2023-03-23T01:36:03;40.15;;;20.70;;
28766;SDS011;15921;52.034;20.650;2023-03-23T01:38:31;36.75;;;19.35;;
28766;SDS011;15921;52.034;20.650;2023-03-23T01:40:58;44.10;;;21.92;;
28766;SDS011;15921;52.034;20.650;2023-03-23T01:43:23;38.03;;;19.75;;
28766;SDS011;15921;52.034;20.650;2023-03-23T01:45:49;39.50;;;20.27;;
28766;SDS011;15921;52.034;20.650;2023-03-23T01:48:17;43.45;;;21.35;;
28766;SDS011;15921;52.034;20.650;2023-03-23T01:50:49;39.22;;;19.25;;
28766;SDS011;15921;52.034;20.650;2023-03-23T01:53:39;40.28;;;20.45;;
28766;SDS011;15921;52.034;20.650;2023-03-23T01:56:11;37.47;;;20.50;;
28766;SDS011;15921;52.034;20.650;2023-03-23T01:58:38;38.85;;;20.80;;
28766;SDS011;15921;52.034;20.650;2023-03-23T02:01:06;38.38;;;19.58;;
28766;SDS011;15921;52.034;20.650;2023-03-23T02:03:36;40.45;;;20.65;;
28766;SDS011;15921;52.034;20.650;2023-03-23T02:06:04;38.20;;;20.02;;
28766;SDS011;15921;52.034;20.650;2023-03-23T02:08:30;38.67;;;20.65;;
28766;SDS011;15921;52.034;20.650;2023-03-23T02:10:58;39.17;;;20.70;;
28766;SDS011;15921;52.034;20.650;2023-03-23T02:13:24;40.15;;;22.02;;
28766;SDS011;15921;52.034;20.650;2023-03-23T02:16:07;38.40;;;20.50;;
28766;SDS011;15921;52.034;20.650;2023-03-23T02:27:09;45.33;;;21.38;;
28766;SDS011;15921;52.034;20.650;2023-03-23T02:35:34;38.47;;;19.75;;
28766;SDS011;15921;52.034;20.650;2023-03-23T02:38:08;37.72;;;21.23;;
28766;SDS011;15921;52.034;20.650;2023-03-23T02:40:47;42.15;;;21.20;;
28766;SDS011;15921;52.034;20.650;2023-03-23T02:43:16;44.58;;;20.08;;
28766;SDS011;15921;52.034;20.650;2023-03-23T02:45:46;41.33;;;21.02;;
28766;SDS011;15921;52.034;20.650;2023-03-23T02:48:15;37.55;;;20.08;;
28766;SDS011;15921;52.034;20.650;2023-03-23T02:50:44;37.47;;;20.30;;
28766;SDS011;15921;52.034;20.650;2023-03-23T02:53:16;39.22;;;19.80;;
28766;SDS011;15921;52.034;20.650;2023-03-23T02:55:48;34.63;;;20.42;;
28766;SDS011;15921;52.034;20.650;2023-03-23T02:58:18;42.17;;;21.48;;
28766;SDS011;15921;52.034;20.650;2023-03-23T03:00:44;37.17;;;20.75;;
28766;SDS011;15921;52.034;20.650;2023-03-23T03:03:15;36.10;;;21.05;;
28766;SDS011;15921;52.034;20.650;2023-03-23T03:05:49;40.20;;;20.60;;
28766;SDS011;15921;52.034;20.650;2023-03-23T03:08:48;39.53;;;20.70;;
28766;SDS011;15921;52.034;20.650;2023-03-23T03:11:39;41.97;;;19.65;;
28766;SDS011;15921;52.034;20.650;2023-03-23T03:14:18;39.33;;;18.75;;
28766;SDS011;15921;52.034;20.650;2023-03-23T03:17:00;32.45;;;18.80;;
28766;SDS011;15921;52.034;20.650;2023-03-23T03:19:32;37.78;;;20.08;;
28766;SDS011;15921;52.034;20.650;2023-03-23T03:22:08;37.85;;;20.27;;
28766;SDS011;15921;52.034;20.650;2023-03-23T03:24:34;37.13;;;20.15;;
28766;SDS011;15921;52.034;20.650;2023-03-23T03:27:05;35.28;;;19.63;;
28766;SDS011;15921;52.034;20.650;2023-03-23T03:29:40;35.15;;;19.45;;
28766;SDS011;15921;52.034;20.650;2023-03-23T03:32:08;40.35;;;21.10;;
28766;SDS011;15921;52.034;20.650;2023-03-23T03:34:37;38.83;;;20.13;;
28766;SDS011;15921;52.034;20.650;2023-03-23T03:37:04;40.90;;;19.75;;
28766;SDS011;15921;52.034;20.650;2023-03-23T03:39:31;37.63;;;20.10;;
28766;SDS011;15921;52.034;20.650;2023-03-23T03:42:00;39.08;;;20.08;;
28766;SDS011;15921;52.034;20.650;2023-03-23T03:44:26;33.28;;;19.80;;
28766;SDS011;15921;52.034;20.650;2023-03-23T03:46:52;44.83;;;20.73;;
28766;SDS011;15921;52.034;20.650;2023-03-23T03:49:18;38.45;;;19.80;;
28766;SDS011;15921;52.034;20.650;2023-03-23T03:51:43;42.05;;;20.45;;
28766;SDS011;15921;52.034;20.650;2023-03-23T03:54:09;39.00;;;20.00;;
28766;SDS011;15921;52.034;20.650;2023-03-23T03:56:35;34.55;;;19.02;;
28766;SDS011;15921;52.034;20.650;2023-03-23T03:59:05;35.25;;;18.70;;
28766;SDS011;15921;52.034;20.650;2023-03-23T04:01:32;35.42;;;19.30;;
28766;SDS011;15921;52.034;20.650;2023-03-23T04:03:59;36.15;;;19.52;;
28766;SDS011;15921;52.034;20.650;2023-03-23T04:06:25;34.33;;;18.17;;
28766;SDS011;15921;52.034;20.650;2023-03-23T04:08:53;37.10;;;18.95;;
28766;SDS011;15921;52.034;20.650;2023-03-23T04:11:24;35.72;;;18.75;;
28766;SDS011;15921;52.034;20.650;2023-03-23T04:13:51;36.90;;;19.20;;
28766;SDS011;15921;52.034;20.650;2023-03-23T04:16:17;33.35;;;17.27;;
28766;SDS011;15921;52.034;20.650;2023-03-23T04:18:42;31.67;;;17.88;;
28766;SDS011;15921;52.034;20.650;2023-03-23T04:21:09;38.05;;;19.67;;
28766;SDS011;15921;52.034;20.650;2023-03-23T04:23:35;33.15;;;17.42;;
28766;SDS011;15921;52.034;20.650;2023-03-23T04:26:02;35.30;;;17.80;;
28766;SDS011;15921;52.034;20.650;2023-03-23T04:28:28;37.28;;;18.25;;
28766;SDS011;15921;52.034;20.650;2023-03-23T04:30:54;33.33;;;18.20;;
28766;SDS011;15921;52.034;20.650;2023-03-23T04:33:21;35.10;;;18.13;;
28766;SDS011;15921;52.034;20.650;2023-03-23T04:35:50;32.05;;;17.40;;
28766;SDS011;15921;52.034;20.650;2023-03-23T04:38:17;30.00;;;16.30;;
28766;SDS011;15921;52.034;20.650;2023-03-23T04:40:45;30.10;;;16.27;;
28766;SDS011;15921;52.034;20.650;2023-03-23T04:43:12;32.63;;;16.42;;
28766;SDS011;15921;52.034;20.650;2023-03-23T04:45:40;29.02;;;16.50;;
28766;SDS011;15921;52.034;20.650;2023-03-23T04:48:11;30.98;;;17.60;;
28766;SDS011;15921;52.034;20.650;2023-03-23T04:50:37;29.02;;;16.65;;
28766;SDS011;15921;52.034;20.650;2023-03-23T04:53:03;33.67;;;18.92;;
28766;SDS011;15921;52.034;20.650;2023-03-23T04:55:33;35.88;;;17.23;;
28766;SDS011;15921;52.034;20.650;2023-03-23T04:58:01;35.95;;;17.20;;
28766;SDS011;15921;52.034;20.650;2023-03-23T05:00:28;31.08;;;17.33;;
28766;SDS011;15921;52.034;20.650;2023-03-23T05:02:54;30.58;;;16.70;;
28766;SDS011;15921;52.034;20.650;2023-03-23T05:05:20;33.22;;;18.08;;
28766;SDS011;15921;52.034;20.650;2023-03-23T05:07:47;27.75;;;15.68;;
28766;SDS011;15921;52.034;20.650;2023-03-23T05:10:13;34.05;;;16.95;;
28766;SDS011;15921;52.034;20.650;2023-03-23T05:12:40;34.65;;;18.48;;
28766;SDS011;15921;52.034;20.650;2023-03-23T05:15:06;29.75;;;15.85;;
28766;SDS011;15921;52.034;20.650;2023-03-23T05:17:33;32.17;;;16.15;;
28766;SDS011;15921;52.034;20.650;2023-03-23T05:19:59;31.52;;;16.95;;
28766;SDS011;15921;52.034;20.650;2023-03-23T05:22:28;31.95;;;16.45;;
28766;SDS011;15921;52.034;20.650;2023-03-23T05:24:57;31.23;;;17.35;;
28766;SDS011;15921;52.034;20.650;2023-03-23T05:29:58;37.35;;;17.67;;
28766;SDS011;15921;52.034;20.650;2023-03-23T05:32:26;28.88;;;15.15;;
28766;SDS011;15921;52.034;20.650;2023-03-23T05:34:54;34.50;;;17.25;;
28766;SDS011;15921;52.034;20.650;2023-03-23T05:37:21;32.45;;;16.75;;
28766;SDS011;15921;52.034;20.650;2023-03-23T05:39:47;34.22;;;16.42;;
28766;SDS011;15921;52.034;20.650;2023-03-23T05:42:13;29.77;;;16.45;;
28766;SDS011;15921;52.034;20.650;2023-03-23T05:44:39;32.22;;;16.08;;
28766;SDS011;15921;52.034;20.650;2023-03-23T05:47:05;33.40;;;15.95;;
28766;SDS011;15921;52.034;20.650;2023-03-23T05:49:30;33.72;;;16.48;;
28766;SDS011;15921;52.034;20.650;2023-03-23T05:51:56;30.98;;;15.93;;
28766;SDS011;15921;52.034;20.650;2023-03-23T05:54:22;31.58;;;16.98;;
28766;SDS011;15921;52.034;20.650;2023-03-23T05:56:47;33.13;;;16.27;;
28766;SDS011;15921;52.034;20.650;2023-03-23T05:59:14;30.00;;;16.40;;
28766;SDS011;15921;52.034;20.650;2023-03-23T06:01:40;31.65;;;16.00;;
28766;SDS011;15921;52.034;20.650;2023-03-23T06:04:05;34.05;;;15.52;;
28766;SDS011;15921;52.034;20.650;2023-03-23T06:06:31;33.13;;;15.70;;
28766;SDS011;15921;52.034;20.650;2023-03-23T06:08:57;31.08;;;16.15;;
28766;SDS011;15921;52.034;20.650;2023-03-23T06:11:24;29.75;;;16.38;;
28766;SDS011;15921;52.034;20.650;2023-03-23T06:13:51;26.27;;;14.57;;
28766;SDS011;15921;52.034;20.650;2023-03-23T06:16:17;25.45;;;15.05;;
28766;SDS011;15921;52.034;20.650;2023-03-23T06:18:44;31.70;;;14.63;;
28766;SDS011;15921;52.034;20.650;2023-03-23T06:21:10;25.42;;;15.02;;
28766;SDS011;15921;52.034;20.650;2023-03-23T06:23:37;31.40;;;15.05;;
28766;SDS011;15921;52.034;20.650;2023-03-23T06:26:04;24.50;;;14.95;;
28766;SDS011;15921;52.034;20.650;2023-03-23T06:28:32;34.33;;;14.75;;
28766;SDS011;15921;52.034;20.650;2023-03-23T06:30:59;28.35;;;14.68;;
28766;SDS011;15921;52.034;20.650;2023-03-23T06:33:31;23.85;;;14.00;;
28766;SDS011;15921;52.034;20.650;2023-03-23T06:35:59;25.98;;;14.82;;
28766;SDS011;15921;52.034;20.650;2023-03-23T06:38:25;24.10;;;14.63;;
28766;SDS011;15921;52.034;20.650;2023-03-23T06:40:54;26.85;;;15.10;;
28766;SDS011;15921;52.034;20.650;2023-03-23T06:43:20;26.42;;;15.23;;
28766;SDS011;15921;52.034;20.650;2023-03-23T06:45:46;27.02;;;15.10;;
28766;SDS011;15921;52.034;20.650;2023-03-23T06:48:12;25.23;;;14.27;;
28766;SDS011;15921;52.034;20.650;2023-03-23T06:50:38;33.90;;;14.43;;
28766;SDS011;15921;52.034;20.650;2023-03-23T06:53:07;26.23;;;14.52;;
28766;SDS011;15921;52.034;20.650;2023-03-23T06:55:33;27.65;;;14.57;;
28766;SDS011;15921;52.034;20.650;2023-03-23T06:57:58;24.60;;;13.80;;
28766;SDS011;15921;52.034;20.650;2023-03-23T07:00:26;29.90;;;13.98;;
28766;SDS011;15921;52.034;20.650;2023-03-23T07:02:52;26.13;;;14.27;;
28766;SDS011;15921;52.034;20.650;2023-03-23T07:05:18;27.17;;;13.60;;
28766;SDS011;15921;52.034;20.650;2023-03-23T07:07:44;24.33;;;13.05;;
28766;SDS011;15921;52.034;20.650;2023-03-23T07:10:10;26.27;;;13.68;;
28766;SDS011;15921;52.034;20.650;2023-03-23T07:12:36;27.83;;;13.15;;
28766;SDS011;15921;52.034;20.650;2023-03-23T07:15:05;26.77;;;13.50;;
28766;SDS011;15921;52.034;20.650;2023-03-23T07:17:34;27.60;;;13.27;;
28766;SDS011;15921;52.034;20.650;2023-03-23T07:20:00;23.42;;;12.55;;
28766;SDS011;15921;52.034;20.650;2023-03-23T07:22:25;23.02;;;12.23;;
28766;SDS011;15921;52.034;20.650;2023-03-23T07:24:51;25.05;;;12.20;;
28766;SDS011;15921;52.034;20.650;2023-03-23T07:27:17;25.23;;;12.77;;
28766;SDS011;15921;52.034;20.650;2023-03-23T07:29:42;25.75;;;12.65;;
28766;SDS011;15921;52.034;20.650;2023-03-23T07:32:10;29.67;;;13.20;;
28766;SDS011;15921;52.034;20.650;2023-03-23T07:34:37;22.30;;;11.45;;
28766;SDS011;15921;52.034;20.650;2023-03-23T07:37:03;20.80;;;11.45;;
28766;SDS011;15921;52.034;20.650;2023-03-23T07:39:29;29.25;;;11.40;;
28766;SDS011;15921;52.034;20.650;2023-03-23T07:41:55;26.08;;;12.50;;
28766;SDS011;15921;52.034;20.650;2023-03-23T07:44:21;23.98;;;13.18;;
28766;SDS011;15921;52.034;20.650;2023-03-23T07:46:47;20.98;;;11.75;;
28766;SDS011;15921;52.034;20.650;2023-03-23T07:49:13;22.08;;;13.02;;
28766;SDS011;15921;52.034;20.650;2023-03-23T07:51:39;21.85;;;11.82;;
28766;SDS011;15921;52.034;20.650;2023-03-23T07:54:05;26.08;;;12.63;;
28766;SDS011;15921;52.034;20.650;2023-03-23T07:56:32;19.55;;;12.10;;
28766;SDS011;15921;52.034;20.650;2023-03-23T07:59:00;21.25;;;10.98;;
28766;SDS011;15921;52.034;20.650;2023-03-23T08:01:28;18.30;;;11.27;;
28766;SDS011;15921;52.034;20.650;2023-03-23T08:03:54;18.65;;;11.05;;
28766;SDS011;15921;52.034;20.650;2023-03-23T08:06:22;20.73;;;11.23;;
28766;SDS011;15921;52.034;20.650;2023-03-23T08:08:51;24.98;;;10.70;;
28766;SDS011;15921;52.034;20.650;2023-03-23T08:11:18;16.17;;;10.55;;
28766;SDS011;15921;52.034;20.650;2023-03-23T08:13:44;16.98;;;9.73;;
28766;SDS011;15921;52.034;20.650;2023-03-23T08:16:10;23.02;;;10.00;;
28766;SDS011;15921;52.034;20.650;2023-03-23T08:18:36;21.10;;;10.40;;
28766;SDS011;15921;52.034;20.650;2023-03-23T08:21:04;19.35;;;9.43;;
28766;SDS011;15921;52.034;20.650;2023-03-23T08:23:31;16.77;;;9.45;;
28766;SDS011;15921;52.034;20.650;2023-03-23T08:25:57;15.90;;;8.88;;
28766;SDS011;15921;52.034;20.650;2023-03-23T08:28:24;17.33;;;8.90;;
28766;SDS011;15921;52.034;20.650;2023-03-23T08:30:49;18.40;;;9.20;;
28766;SDS011;15921;52.034;20.650;2023-03-23T08:33:15;20.17;;;9.57;;
28766;SDS011;15921;52.034;20.650;2023-03-23T08:35:42;15.13;;;8.45;;
28766;SDS011;15921;52.034;20.650;2023-03-23T08:38:09;15.02;;;7.82;;
28766;SDS011;15921;52.034;20.650;2023-03-23T08:40:36;15.50;;;7.95;;
28766;SDS011;15921;52.034;20.650;2023-03-23T08:43:04;16.15;;;8.00;;
28766;SDS011;15921;52.034;20.650;2023-03-23T08:45:30;15.48;;;8.57;;
28766;SDS011;15921;52.034;20.650;2023-03-23T08:47:56;16.80;;;7.43;;
28766;SDS011;15921;52.034;20.650;2023-03-23T08:50:24;12.13;;;7.15;;
28766;SDS011;15921;52.034;20.650;2023-03-23T08:52:52;13.07;;;7.53;;
28766;SDS011;15921;52.034;20.650;2023-03-23T08:55:19;12.25;;;7.43;;
28766;SDS011;15921;52.034;20.650;2023-03-23T08:57:46;13.82;;;7.43;;
28766;SDS011;15921;52.034;20.650;2023-03-23T09:00:17;11.80;;;7.20;;
28766;SDS011;15921;52.034;20.650;2023-03-23T09:02:45;14.07;;;7.32;;
28766;SDS011;15921;52.034;20.650;2023-03-23T09:05:14;11.88;;;6.65;;
28766;SDS011;15921;52.034;20.650;2023-03-23T09:07:42;11.38;;;6.80;;
28766;SDS011;15921;52.034;20.650;2023-03-23T09:10:09;14.38;;;7.20;;
28766;SDS011;15921;52.034;20.650;2023-03-23T09:12:35;12.15;;;7.25;;
28766;SDS011;15921;52.034;20.650;2023-03-23T09:15:03;16.92;;;7.70;;
28766;SDS011;15921;52.034;20.650;2023-03-23T09:17:35;17.35;;;7.65;;
28766;SDS011;15921;52.034;20.650;2023-03-23T09:20:03;15.38;;;7.78;;
28766;SDS011;15921;52.034;20.650;2023-03-23T09:22:40;17.55;;;8.43;;
28766;SDS011;15921;52.034;20.650;2023-03-23T09:25:11;15.70;;;8.80;;
28766;SDS011;15921;52.034;20.650;2023-03-23T09:27:39;15.45;;;7.80;;
28766;SDS011;15921;52.034;20.650;2023-03-23T09:30:07;18.60;;;7.25;;
28766;SDS011;15921;52.034;20.650;2023-03-23T09:32:35;14.38;;;8.32;;
28766;SDS011;15921;52.034;20.650;2023-03-23T09:35:02;16.52;;;9.10;;
28766;SDS011;15921;52.034;20.650;2023-03-23T09:37:31;13.75;;;7.45;;
28766;SDS011;15921;52.034;20.650;2023-03-23T09:39:58;12.10;;;7.22;;
28766;SDS011;15921;52.034;20.650;2023-03-23T09:42:38;13.35;;;8.10;;
28766;SDS011;15921;52.034;20.650;2023-03-23T09:50:30;11.15;;;6.50;;
28766;SDS011;15921;52.034;20.650;2023-03-23T09:55:44;12.40;;;6.47;;
28766;SDS011;15921;52.034;20.650;2023-03-23T09:58:19;15.70;;;7.22;;
28766;SDS011;15921;52.034;20.650;2023-03-23T10:03:32;15.10;;;8.65;;
28766;SDS011;15921;52.034;20.650;2023-03-23T10:06:03;11.05;;;7.05;;
28766;SDS011;15921;52.034;20.650;2023-03-23T10:08:32;17.08;;;7.93;;
28766;SDS011;15921;52.034;20.650;2023-03-23T10:11:03;14.30;;;7.80;;
28766;SDS011;15921;52.034;20.650;2023-03-23T10:16:21;12.45;;;7.35;;
28766;SDS011;15921;52.034;20.650;2023-03-23T10:19:11;13.63;;;7.57;;
28766;SDS011;15921;52.034;20.650;2023-03-23T10:21:50;12.23;;;7.70;;
28766;SDS011;15921;52.034;20.650;2023-03-23T10:24:21;12.10;;;7.07;;
28766;SDS011;15921;52.034;20.650;2023-03-23T10:31:59;10.13;;;6.55;;
28766;SDS011;15921;52.034;20.650;2023-03-23T10:34:34;16.63;;;6.35;;
28766;SDS011;15921;52.034;20.650;2023-03-23T10:37:09;8.18;;;4.53;;
28766;SDS011;15921;52.034;20.650;2023-03-23T10:39:59;7.97;;;4.93;;
28766;SDS011;15921;52.034;20.650;2023-03-23T10:42:29;7.45;;;4.00;;
28766;SDS011;15921;52.034;20.650;2023-03-23T10:44:58;8.52;;;3.85;;
28766;SDS011;15921;52.034;20.650;2023-03-23T10:47:25;9.55;;;4.22;;
28766;SDS011;15921;52.034;20.650;2023-03-23T10:49:59;7.38;;;3.88;;
28766;SDS011;15921;52.034;20.650;2023-03-23T10:52:32;9.50;;;4.13;;
28766;SDS011;15921;52.034;20.650;2023-03-23T10:57:59;11.73;;;4.70;;
28766;SDS011;15921;52.034;20.650;2023-03-23T11:00:27;9.00;;;4.03;;
28766;SDS011;15921;52.034;20.650;2023-03-23T11:05:44;6.70;;;4.25;;
28766;SDS011;15921;52.034;20.650;2023-03-23T11:08:15;9.88;;;4.25;;
28766;SDS011;15921;52.034;20.650;2023-03-23T11:11:27;12.27;;;4.38;;
28766;SDS011;15921;52.034;20.650;2023-03-23T11:13:38;8.55;;;4.22;;
28766;SDS011;15921;52.034;20.650;2023-03-23T11:16:08;5.82;;;3.38;;
28766;SDS011;15921;52.034;20.650;2023-03-23T11:18:36;5.68;;;3.17;;
28766;SDS011;15921;52.034;20.650;2023-03-23T11:21:08;6.78;;;2.80;;
28766;SDS011;15921;52.034;20.650;2023-03-23T11:23:41;6.47;;;2.67;;
28766;SDS011;15921;52.034;20.650;2023-03-23T11:29:14;4.80;;;2.05;;
28766;SDS011;15921;52.034;20.650;2023-03-23T11:31:47;4.45;;;2.72;;
28766;SDS011;15921;52.034;20.650;2023-03-23T11:34:18;5.32;;;2.65;;
28766;SDS011;15921;52.034;20.650;2023-03-23T11:41:50;7.95;;;3.22;;
28766;SDS011;15921;52.034;20.650;2023-03-23T11:44:17;5.57;;;2.90;;
28766;SDS011;15921;52.034;20.650;2023-03-23T11:47:08;4.20;;;2.83;;
28766;SDS011;15921;52.034;20.650;2023-03-23T11:52:18;9.65;;;3.40;;
28766;SDS011;15921;52.034;20.650;2023-03-23T11:54:52;8.90;;;3.83;;
28766;SDS011;15921;52.034;20.650;2023-03-23T11:57:35;8.75;;;3.70;;
28766;SDS011;15921;52.034;20.650;2023-03-23T12:00:01;6.82;;;3.65;;
28766;SDS011;15921;52.034;20.650;2023-03-23T12:02:43;9.90;;;3.65;;
28766;SDS011;15921;52.034;20.650;2023-03-23T12:05:32;8.55;;;4.43;;
28766;SDS011;15921;52.034;20.650;2023-03-23T12:10:54;11.50;;;5.18;;
28766;SDS011;15921;52.034;20.650;2023-03-23T12:13:50;7.22;;;3.72;;
28766;SDS011;15921;52.034;20.650;2023-03-23T12:17:00;7.72;;;4.25;;
28766;SDS011;15921;52.034;20.650;2023-03-23T12:19:34;6.53;;;4.13;;
28766;SDS011;15921;52.034;20.650;2023-03-23T12:30:47;7.63;;;4.63;;
28766;SDS011;15921;52.034;20.650;2023-03-23T12:45:21;7.65;;;4.15;;
28766;SDS011;15921;52.034;20.650;2023-03-23T12:48:00;7.22;;;4.60;;
28766;SDS011;15921;52.034;20.650;2023-03-23T12:50:35;7.57;;;5.07;;
28766;SDS011;15921;52.034;20.650;2023-03-23T12:53:46;8.07;;;4.40;;
28766;SDS011;15921;52.034;20.650;2023-03-23T12:59:10;5.88;;;3.55;;
28766;SDS011;15921;52.034;20.650;2023-03-23T13:01:43;6.10;;;3.15;;
28766;SDS011;15921;52.034;20.650;2023-03-23T13:04:27;5.32;;;3.42;;
28766;SDS011;15921;52.034;20.650;2023-03-23T13:07:01;5.35;;;2.85;;
28766;SDS011;15921;52.034;20.650;2023-03-23T13:09:33;5.38;;;2.58;;
28766;SDS011;15921;52.034;20.650;2023-03-23T13:12:09;6.15;;;2.90;;
28766;SDS011;15921;52.034;20.650;2023-03-23T13:14:57;4.10;;;2.75;;
28766;SDS011;15921;52.034;20.650;2023-03-23T13:17:26;5.47;;;2.92;;
28766;SDS011;15921;52.034;20.650;2023-03-23T13:28:26;7.13;;;2.40;;
28766;SDS011;15921;52.034;20.650;2023-03-23T13:31:03;8.52;;;2.53;;
28766;SDS011;15921;52.034;20.650;2023-03-23T13:33:38;9.48;;;3.25;;
28766;SDS011;15921;52.034;20.650;2023-03-23T13:36:09;7.18;;;3.55;;
28766;SDS011;15921;52.034;20.650;2023-03-23T13:38:36;5.95;;;3.33;;
28766;SDS011;15921;52.034;20.650;2023-03-23T13:41:07;7.43;;;3.35;;
28766;SDS011;15921;52.034;20.650;2023-03-23T13:43:36;8.45;;;3.60;;
28766;SDS011;15921;52.034;20.650;2023-03-23T13:46:07;6.70;;;3.38;;
28766;SDS011;15921;52.034;20.650;2023-03-23T13:49:21;6.68;;;2.92;;
28766;SDS011;15921;52.034;20.650;2023-03-23T13:51:35;13.00;;;3.75;;
28766;SDS011;15921;52.034;20.650;2023-03-23T13:54:24;6.80;;;3.10;;
28766;SDS011;15921;52.034;20.650;2023-03-23T13:59:58;7.13;;;3.03;;
28766;SDS011;15921;52.034;20.650;2023-03-23T14:02:37;6.13;;;3.70;;
28766;SDS011;15921;52.034;20.650;2023-03-23T14:05:19;5.40;;;2.95;;
28766;SDS011;15921;52.034;20.650;2023-03-23T14:13:04;5.88;;;3.28;;
28766;SDS011;15921;52.034;20.650;2023-03-23T14:15:43;6.10;;;3.50;;
28766;SDS011;15921;52.034;20.650;2023-03-23T14:18:18;7.85;;;4.10;;
28766;SDS011;15921;52.034;20.650;2023-03-23T14:20:46;10.88;;;3.80;;
28766;SDS011;15921;52.034;20.650;2023-03-23T14:23:17;5.22;;;3.78;;
28766;SDS011;15921;52.034;20.650;2023-03-23T14:25:44;8.27;;;4.10;;
28766;SDS011;15921;52.034;20.650;2023-03-23T14:28:20;7.40;;;3.58;;
28766;SDS011;15921;52.034;20.650;2023-03-23T14:30:47;5.15;;;3.30;;
28766;SDS011;15921;52.034;20.650;2023-03-23T14:33:17;6.05;;;3.25;;
28766;SDS011;15921;52.034;20.650;2023-03-23T14:35:44;12.43;;;3.42;;
28766;SDS011;15921;52.034;20.650;2023-03-23T14:38:21;5.45;;;3.53;;
28766;SDS011;15921;52.034;20.650;2023-03-23T14:40:51;5.22;;;3.25;;
28766;SDS011;15921;52.034;20.650;2023-03-23T14:43:19;6.93;;;3.70;;
28766;SDS011;15921;52.034;20.650;2023-03-23T14:45:49;5.53;;;3.95;;
28766;SDS011;15921;52.034;20.650;2023-03-23T14:48:20;4.30;;;2.92;;
28766;SDS011;15921;52.034;20.650;2023-03-23T14:50:56;8.57;;;3.80;;
28766;SDS011;15921;52.034;20.650;2023-03-23T14:53:24;6.22;;;3.35;;
28766;SDS011;15921;52.034;20.650;2023-03-23T14:56:03;5.60;;;3.28;;
28766;SDS011;15921;52.034;20.650;2023-03-23T14:58:37;6.25;;;3.88;;
28766;SDS011;15921;52.034;20.650;2023-03-23T15:03:31;10.25;;;4.25;;
28766;SDS011;15921;52.034;20.650;2023-03-23T15:06:02;19.90;;;3.83;;
28766;SDS011;15921;52.034;20.650;2023-03-23T15:08:32;6.78;;;3.67;;
28766;SDS011;15921;52.034;20.650;2023-03-23T15:11:07;7.13;;;4.00;;
28766;SDS011;15921;52.034;20.650;2023-03-23T15:13:34;7.28;;;3.72;;
28766;SDS011;15921;52.034;20.650;2023-03-23T15:16:02;5.57;;;3.33;;
28766;SDS011;15921;52.034;20.650;2023-03-23T15:18:32;7.18;;;3.70;;
28766;SDS011;15921;52.034;20.650;2023-03-23T15:21:11;13.48;;;4.32;;
28766;SDS011;15921;52.034;20.650;2023-03-23T15:23:48;6.35;;;3.47;;
28766;SDS011;15921;52.034;20.650;2023-03-23T15:26:21;5.50;;;3.30;;
28766;SDS011;15921;52.034;20.650;2023-03-23T15:29:04;12.05;;;3.97;;
28766;SDS011;15921;52.034;20.650;2023-03-23T15:31:40;9.93;;;4.20;;
28766;SDS011;15921;52.034;20.650;2023-03-23T15:34:12;8.27;;;4.30;;
28766;SDS011;15921;52.034;20.650;2023-03-23T15:36:43;7.03;;;4.03;;
28766;SDS011;15921;52.034;20.650;2023-03-23T15:39:11;8.25;;;3.90;;
28766;SDS011;15921;52.034;20.650;2023-03-23T15:41:45;7.00;;;4.00;;
28766;SDS011;15921;52.034;20.650;2023-03-23T15:44:32;6.30;;;3.47;;
28766;SDS011;15921;52.034;20.650;2023-03-23T15:47:18;7.63;;;3.63;;
28766;SDS011;15921;52.034;20.650;2023-03-23T15:49:45;9.00;;;3.97;;
28766;SDS011;15921;52.034;20.650;2023-03-23T15:52:12;9.40;;;3.80;;
28766;SDS011;15921;52.034;20.650;2023-03-23T15:54:45;5.45;;;3.65;;
28766;SDS011;15921;52.034;20.650;2023-03-23T15:57:12;6.10;;;3.45;;
28766;SDS011;15921;52.034;20.650;2023-03-23T15:59:37;9.55;;;3.85;;
28766;SDS011;15921;52.034;20.650;2023-03-23T16:02:03;7.72;;;3.30;;
28766;SDS011;15921;52.034;20.650;2023-03-23T16:04:29;9.23;;;3.65;;
28766;SDS011;15921;52.034;20.650;2023-03-23T16:06:56;9.80;;;3.60;;
28766;SDS011;15921;52.034;20.650;2023-03-23T16:09:23;6.53;;;3.70;;
28766;SDS011;15921;52.034;20.650;2023-03-23T16:11:49;11.82;;;3.75;;
28766;SDS011;15921;52.034;20.650;2023-03-23T16:14:15;6.65;;;3.13;;